Épinal-Mirecourt Airport

Airport
ICAO code: 
LFSG
IATA Code: 
EPL
Summary
ICAO Region: 
EUR
Territory: 
Location: 
, Lorraine
Serving: 
Epinal
Elevation: 
1084 ft
Coordinates: 
Aerial View: 
48° 19' 29.86" N, 6° 4' 11.939" E
Metar
Observation
LFSG 302000Z AUTO 20014KT 4500 -DZ BR OVC005 03/02 Q1017
Station
Epinal-Mirecourt
Date/Time
2021-11-30 20:00:00
Wind direction
200°
Wind speed
14 kts
Lowest cloud amount
overcast
Temperature
3°C
Dew point
2°C
Humidity
93%
QNH
1017 hPa
Weather condition
n/a

Runways

Designator Length Width Surface Rops
9/27 2700 45 CON Yes/Yes
Airport map: 
Aerial View: 

SKYbrary Partners:

Safety knowledge contributed by: